GVSV

São Pedro/Cesária Évora Airport

Airport
ICAO code
GVSV
IATA Code
VXE
Summary
ICAO Region
AFI
ICAO Territory
Location

São Pedro, São Vicente Island, Ilhas de Barlavento

Serving
Mindelo
Elevation
66 ft
Coordinates
16° 50' 8" N , 25° 3' 14" W
Metar
Observation
GVSV 091100Z 04011KT 9999 FEW020 SCT090 28/21 Q1014 NOSIG
Station
S. PEDRO
Date/Time
2022-08-09 11:00:00
Wind direction
40°
Wind speed
11 kts
Lowest cloud amount
few clouds
Temperature
28°C
Dew point
21°C
Humidity
65%
QNH
1014 hPa
Weather condition
n/a

Runways

Designator Length Width Surface Rops
7/25 2000 30 ASP No/No

Airport map

Aerial View

SKYbrary Partners:

Safety knowledge contributed by: